Terminal Aerodrome Forecast
Issued by NWS

Home | Current Version | Previous Version | Text Only | Print | Product List | Glossary On
Versions: 1 2 3 4 5 6 7 8 9 10 11 12 13 14 15 16 17 18 19 20 21 22 23 24
000
FTUS45 KPSR 312323
TAFPHX
TAF
KPHX 312323Z 0100/0124 28011KT P6SM FEW080 SCT200
     FM010800 11007KT P6SM BKN180
     FM012000 26011G16KT P6SM FEW150=

USA.gov is the U.S. government's official web portal to all federal, state and local government web resources and services.